Terminal Aerodrome Forecast
Issued by NWS Boston, MA

Home | Current Version | Previous Version | Text Only | Print | Product List | Glossary On
Versions: 1 2 3 4 5 6 7 8 9 10 11 12 13 14 15 16 17 18 19 20 21
000
FTUS41 KBOX 311729
TAFBDL
TAF
KBDL 311729Z 3118/0124 36005KT P6SM OVC050
     FM010800 03009KT P6SM OVC050
     FM011400 03013G23KT P6SM OVC015
     FM011600 03013G23KT P6SM -SHRA OVC015
     FM012200 01013G27KT P6SM OVC015=

USA.gov is the U.S. government's official web portal to all federal, state and local government web resources and services.